ěÝzenÝ letovÚho provozu ╚eskÚ republiky
Letiste: LKNA Aktualizace: 29.07.2021 12:00:31  UTC
 METAR LKNA 29.07. 12:00 ...
METAR LKNA 291200Z 28010KT 250V310 CAVOK 24/13 Q1015 NOSIG RMK BLU BLU=
 TAF LKNA 29.07. 11:00 ...
TAF LKNA 291100Z 2912/3012 28010KT CAVOK      TEMPO 2912/2914 9999 BKN040      BECMG 2918/2920 34004KT=